createdAt,value
2019-05-23T00:04:24.374Z,10.2
2019-05-23T00:09:26.814Z,10.1
2019-05-23T00:14:29.247Z,10.1
2019-05-23T00:19:31.697Z,10
2019-05-23T00:24:34.170Z,9.9
2019-05-23T00:29:36.596Z,9.9
2019-05-23T00:34:39.069Z,9.8
2019-05-23T00:39:41.540Z,9.8
2019-05-23T00:44:43.993Z,9.7
2019-05-23T00:49:46.456Z,9.7
2019-05-23T00:54:48.913Z,9.7
2019-05-23T00:59:51.402Z,9.7
2019-05-23T01:04:53.826Z,9.6
2019-05-23T01:09:56.307Z,9.6
2019-05-23T01:14:58.721Z,9.6
2019-05-23T01:20:01.188Z,9.6
2019-05-23T01:25:03.788Z,9.5
2019-05-23T01:30:06.190Z,9.5
2019-05-23T01:35:08.621Z,9.4
2019-05-23T01:40:11.135Z,9.4
2019-05-23T01:45:13.479Z,9.4
2019-05-23T01:50:15.948Z,9.3
2019-05-23T01:55:18.413Z,9.3
2019-05-23T02:00:20.938Z,9.2
2019-05-23T02:05:23.327Z,9.2
2019-05-23T02:10:25.775Z,9.1
2019-05-23T02:15:28.231Z,9.1
2019-05-23T02:20:30.678Z,9.1
2019-05-23T02:25:33.139Z,9.2
2019-05-23T02:30:36.272Z,9.2
2019-05-23T02:35:38.063Z,9.3
2019-05-23T02:40:40.552Z,9.4
2019-05-23T02:45:42.997Z,9.4
2019-05-23T02:50:45.431Z,9.4
2019-05-23T02:55:47.895Z,9.4
2019-05-23T03:00:54.558Z,9.3
2019-05-23T03:05:52.830Z,9.3
2019-05-23T03:10:55.287Z,9.2
2019-05-23T03:15:57.763Z,9.2
2019-05-23T03:21:00.219Z,9.2
2019-05-23T03:26:02.645Z,9.2
2019-05-23T03:31:26.276Z,9.2
2019-05-23T03:36:07.580Z,9.2
2019-05-23T03:41:10.058Z,9.2
2019-05-23T03:46:12.463Z,9.2
2019-05-23T03:51:14.899Z,9.2
2019-05-23T03:56:17.406Z,9.2
2019-05-23T04:01:19.845Z,9.3
2019-05-23T04:06:22.311Z,9.3
2019-05-23T04:11:24.829Z,9.4
2019-05-23T04:16:30.390Z,9.5
2019-05-23T04:21:29.647Z,9.6
2019-05-23T04:26:32.147Z,9.7
2019-05-23T04:31:34.581Z,9.8
2019-05-23T04:36:37.059Z,10
2019-05-23T04:41:39.510Z,10.1
2019-05-23T04:46:41.955Z,10.1
2019-05-23T04:51:44.430Z,10.3
2019-05-23T04:56:46.854Z,10.5
2019-05-23T05:01:49.325Z,10.7
2019-05-23T05:06:51.906Z,10.9
2019-05-23T05:11:54.331Z,11
2019-05-23T05:16:56.686Z,11.1
2019-05-23T05:21:59.151Z,11.3
2019-05-23T05:27:01.612Z,11.5
2019-05-23T05:32:04.292Z,11.6
2019-05-23T05:37:06.568Z,11.6
2019-05-23T05:42:09.151Z,11.7
2019-05-23T05:47:11.467Z,12.1
2019-05-23T05:52:13.913Z,12.7
2019-05-23T05:57:16.354Z,13.4
2019-05-23T06:02:18.820Z,13.9
2019-05-23T06:07:21.276Z,14.4
2019-05-23T06:12:23.775Z,15
2019-05-23T06:17:26.299Z,15.5
2019-05-23T06:22:28.665Z,16.5
2019-05-23T06:27:31.122Z,18.2
2019-05-23T06:32:33.704Z,20.1
2019-05-23T06:37:36.137Z,21.1
2019-05-23T06:42:38.511Z,21.9
2019-05-23T06:47:40.966Z,22.4
2019-05-23T06:52:43.412Z,23.4
2019-05-23T07:02:48.408Z,25.2
2019-05-23T07:07:50.772Z,26
2019-05-23T07:12:53.245Z,26.3
2019-05-23T07:17:55.710Z,27
2019-05-23T07:22:58.150Z,26.9
2019-05-23T07:28:00.668Z,26.6
2019-05-23T07:33:03.092Z,27
2019-05-23T07:38:05.541Z,26.7
2019-05-23T07:43:08.008Z,26.6
2019-05-23T07:48:10.492Z,27.7
2019-05-23T07:53:12.901Z,28.5
2019-05-23T07:58:15.414Z,30.6
2019-05-23T08:03:17.884Z,30.9
2019-05-23T08:08:22.309Z,31.6
2019-05-23T08:13:22.847Z,32
2019-05-23T08:18:25.324Z,30.8
2019-05-23T08:23:27.807Z,30.2
2019-05-23T08:28:30.133Z,31.8
2019-05-23T08:33:32.621Z,35.4
2019-05-23T08:38:35.038Z,37.2
2019-05-23T08:43:37.505Z,36
2019-05-23T08:48:39.988Z,36.3
2019-05-23T08:53:42.458Z,36.7
2019-05-23T08:58:44.951Z,35.9
2019-05-23T09:03:47.411Z,34.4
2019-05-23T09:08:49.929Z,33.9
2019-05-23T09:13:52.432Z,34.5
2019-05-23T09:18:54.804Z,36.4
2019-05-23T09:28:59.678Z,40.7
2019-05-23T09:34:02.140Z,39
2019-05-23T09:39:04.570Z,38.3
2019-05-23T09:44:07.148Z,39.8
2019-05-23T09:49:11.178Z,40
2019-05-23T09:54:11.967Z,39.6
2019-05-23T09:59:14.422Z,39.8
2019-05-23T10:04:16.917Z,39.8
2019-05-23T10:09:19.639Z,41.4
2019-05-23T10:14:21.809Z,42
2019-05-23T10:19:24.447Z,41.6
2019-05-23T10:24:26.733Z,39.2
2019-05-23T10:29:29.231Z,37.7
2019-05-23T10:34:31.681Z,38.1
2019-05-23T10:39:34.107Z,39.5
2019-05-23T10:44:36.665Z,40.8
2019-05-23T10:49:39.021Z,41.6
2019-05-23T10:54:41.712Z,42.4
2019-05-23T10:59:43.936Z,43.2
2019-05-23T11:04:46.503Z,43.6
2019-05-23T11:09:48.879Z,43.9
2019-05-23T11:14:51.331Z,43.7
2019-05-23T11:19:53.809Z,43.7
2019-05-23T11:24:56.365Z,43.5
2019-05-23T11:29:58.886Z,43.2
2019-05-23T11:35:01.200Z,42.5
2019-05-23T11:40:03.661Z,40.9
2019-05-23T11:45:06.171Z,40.6
2019-05-23T11:50:08.569Z,40.9
2019-05-23T11:55:11.045Z,41.4
2019-05-23T12:00:13.622Z,42
2019-05-23T12:05:15.965Z,42.4
2019-05-23T12:10:18.480Z,42.3
2019-05-23T12:15:20.869Z,42.2
2019-05-23T12:25:25.786Z,39.3
2019-05-23T12:30:28.283Z,37.5
2019-05-23T12:35:30.707Z,35.7
2019-05-23T12:40:33.242Z,34.2
2019-05-23T12:45:35.636Z,33.9
2019-05-23T12:50:38.108Z,34.2
2019-05-23T12:55:40.633Z,34
2019-05-23T13:00:43.038Z,32.3
2019-05-23T13:05:45.505Z,30.5
2019-05-23T13:10:47.989Z,29.1
2019-05-23T13:15:50.487Z,28
2019-05-23T13:20:52.863Z,27.2
2019-05-23T13:25:55.305Z,26.5
2019-05-23T13:30:57.771Z,25.8
2019-05-23T13:36:00.292Z,25.3
2019-05-23T13:41:02.698Z,24.6
2019-05-23T13:46:05.217Z,23.9
2019-05-23T13:51:07.609Z,23.5
2019-05-23T13:56:10.140Z,23.4
2019-05-23T14:01:12.515Z,23.4
2019-05-23T14:06:15.009Z,23.4
2019-05-23T14:11:17.521Z,23.3
2019-05-23T14:16:19.923Z,23.2
2019-05-23T14:21:22.406Z,23.1
2019-05-23T14:26:24.846Z,22.9
2019-05-23T14:31:27.279Z,22.8
2019-05-23T14:36:32.113Z,22.8
2019-05-23T14:41:44.465Z,23
2019-05-23T14:46:34.783Z,23.2
2019-05-23T14:51:37.156Z,23.4
2019-05-23T14:56:39.626Z,23.4
2019-05-23T15:01:42.029Z,23.4
2019-05-23T15:06:44.486Z,23.6
2019-05-23T15:11:46.985Z,23.4
2019-05-23T15:16:49.398Z,23.3
2019-05-23T15:21:52.023Z,23.1
2019-05-23T15:32:02.041Z,22.5
2019-05-23T15:36:59.288Z,22.2
2019-05-23T15:42:01.815Z,22.2
2019-05-23T15:47:04.199Z,22.3
2019-05-23T15:52:06.680Z,22.4
2019-05-23T15:57:09.111Z,22.6
2019-05-23T16:02:11.535Z,22.9
2019-05-23T16:07:14.000Z,23.2
2019-05-23T16:12:16.513Z,23.2
2019-05-23T16:17:18.906Z,23.1
2019-05-23T16:22:21.407Z,22.9
2019-05-23T16:27:23.832Z,22.6
2019-05-23T16:32:26.458Z,22.3
2019-05-23T16:37:28.770Z,22.1
2019-05-23T16:42:31.229Z,21.9
2019-05-23T16:47:33.689Z,21.7
2019-05-23T16:52:36.252Z,21.4
2019-05-23T16:57:38.600Z,21.1
2019-05-23T17:02:41.113Z,20.7
2019-05-23T17:07:43.525Z,20.4
2019-05-23T17:12:45.968Z,20.1
2019-05-23T17:18:01.113Z,19.8
2019-05-23T17:22:50.896Z,19.6
2019-05-23T17:27:53.407Z,19.4
2019-05-23T17:32:55.805Z,19.2
2019-05-23T17:37:58.269Z,19
2019-05-23T17:43:00.715Z,18.9
2019-05-23T17:48:03.390Z,18.7
2019-05-23T17:53:05.610Z,18.5
2019-05-23T17:58:08.097Z,18.3
2019-05-23T18:03:10.571Z,18
2019-05-23T18:08:13.020Z,17.7
2019-05-23T18:13:15.511Z,17.4
2019-05-23T18:18:17.917Z,17.1
2019-05-23T18:23:20.449Z,16.8
2019-05-23T18:28:22.942Z,16.5
2019-05-23T18:33:25.347Z,16.3
2019-05-23T18:38:27.758Z,15.9
2019-05-23T18:43:30.197Z,15.5
2019-05-23T18:48:32.703Z,15.1
2019-05-23T18:53:35.164Z,14.7
2019-05-23T18:58:37.580Z,14.3
2019-05-23T19:03:40.056Z,14
2019-05-23T19:08:42.497Z,13.7
2019-05-23T19:13:44.962Z,13.5
2019-05-23T19:18:47.546Z,13.2
2019-05-23T19:23:49.924Z,12.9
2019-05-23T19:28:52.389Z,12.7
2019-05-23T19:33:54.782Z,12.5
2019-05-23T19:38:57.226Z,12.4
2019-05-23T19:43:59.725Z,12.1
2019-05-23T19:49:02.162Z,11.9
2019-05-23T19:54:04.617Z,11.7
2019-05-23T19:59:07.171Z,11.5
2019-05-23T20:04:09.530Z,11.3
2019-05-23T20:09:11.989Z,11.2
2019-05-23T20:14:14.438Z,11.1
2019-05-23T20:19:16.907Z,11
2019-05-23T20:24:19.360Z,11
2019-05-23T20:29:21.815Z,10.9
2019-05-23T20:34:24.268Z,10.8
2019-05-23T20:39:26.741Z,10.7
2019-05-23T20:44:29.204Z,10.6
2019-05-23T20:49:31.644Z,10.4
2019-05-23T20:54:34.150Z,10.3
2019-05-23T20:59:36.592Z,10.2
2019-05-23T21:04:39.033Z,10.1
2019-05-23T21:09:41.477Z,10
2019-05-23T21:14:43.929Z,9.8
2019-05-23T21:19:46.394Z,9.7
2019-05-23T21:24:48.891Z,9.7
2019-05-23T21:29:51.291Z,9.6
2019-05-23T21:34:53.787Z,9.4
2019-05-23T21:39:56.244Z,9.3
2019-05-23T21:44:58.703Z,9.3
2019-05-23T21:50:01.133Z,9.3
2019-05-23T21:55:03.903Z,9.2
2019-05-23T22:00:06.152Z,9.2
2019-05-23T22:05:08.510Z,9.1
2019-05-23T22:10:11.078Z,9.1
2019-05-23T22:15:13.422Z,9.1
2019-05-23T22:20:15.886Z,9.1
2019-05-23T22:25:18.333Z,9
2019-05-23T22:30:20.803Z,9
2019-05-23T22:35:23.249Z,8.9
2019-05-23T22:40:25.702Z,8.8
2019-05-23T22:45:28.166Z,8.8
2019-05-23T22:50:30.641Z,8.8
2019-05-23T22:55:33.144Z,8.8
2019-05-23T23:00:35.572Z,8.7
2019-05-23T23:05:38.001Z,8.8
2019-05-23T23:10:40.477Z,8.7
2019-05-23T23:15:42.894Z,8.7
2019-05-23T23:20:46.123Z,8.6
2019-05-23T23:25:47.834Z,8.6
2019-05-23T23:30:50.308Z,8.6
2019-05-23T23:35:52.746Z,8.5
2019-05-23T23:40:55.191Z,8.5
2019-05-23T23:45:57.654Z,8.5
2019-05-23T23:51:00.103Z,8.5
2019-05-23T23:56:02.571Z,8.4
